createdAt,value
2024-04-18T00:09:17.730Z,0
2024-04-18T00:14:37.096Z,1.24
2024-04-18T00:25:16.145Z,0
2024-04-18T00:57:12.421Z,0
2024-04-18T01:07:50.106Z,0
2024-04-18T01:13:09.177Z,0.72
2024-04-18T01:23:47.750Z,0
2024-04-18T01:39:46.357Z,0
2024-04-18T01:50:24.484Z,0
2024-04-18T02:06:22.438Z,0
2024-04-18T02:22:19.326Z,0
2024-04-18T02:32:58.646Z,0
2024-04-18T02:43:37.505Z,0
2024-04-18T02:59:34.249Z,0.66
2024-04-18T03:10:12.581Z,1.05
2024-04-18T03:15:31.940Z,1.22
2024-04-18T03:26:10.637Z,2.06
2024-04-18T03:31:30.349Z,2.82
2024-04-18T03:42:08.762Z,0.2
2024-04-18T03:58:06.154Z,2.08
2024-04-18T04:08:44.840Z,1.86
2024-04-18T04:24:42.663Z,1.32
2024-04-18T04:35:20.547Z,1.04
2024-04-18T04:40:39.821Z,1.14
2024-04-18T04:51:19.306Z,0.28
2024-04-18T05:08:56.401Z,0.72
2024-04-18T05:13:11.746Z,0.96
2024-04-18T05:23:14.713Z,0.44
2024-04-18T05:33:54.249Z,1.34
2024-04-18T05:49:50.724Z,0.42
2024-04-18T06:05:48.283Z,0.66
2024-04-18T06:16:28.106Z,0.6
2024-04-18T06:21:46.385Z,1.92
2024-04-18T06:32:25.246Z,2.88
2024-04-18T06:48:23.607Z,4.17
2024-04-18T06:59:01.866Z,3.84
2024-04-18T07:14:59.752Z,3.92
2024-04-18T07:30:57.223Z,5.62
2024-04-18T07:41:36.842Z,4.36
2024-04-18T07:46:55.907Z,2.64
2024-04-18T07:57:36.194Z,1.64
2024-04-18T08:13:35.278Z,4.08
2024-04-18T08:29:30.811Z,2.84
2024-04-18T08:40:09.397Z,2.92
2024-04-18T08:56:08.025Z,1.5
2024-04-18T09:12:07.397Z,3.58
2024-04-18T09:17:25.703Z,3.2
2024-04-18T09:22:45.286Z,2.2
2024-04-18T09:33:24.808Z,6.62
2024-04-18T09:49:21.842Z,0.94
2024-04-18T10:00:01.225Z,1
2024-04-18T10:05:19.704Z,1.58
2024-04-18T10:22:01.393Z,2.84
2024-04-18T10:37:47.822Z,1.5
2024-04-18T10:48:26.348Z,1.98
2024-04-18T11:00:20.435Z,1.96
2024-04-18T11:04:26.100Z,2.92
2024-04-18T11:20:22.881Z,2
2024-04-18T11:31:02.133Z,1.1
2024-04-18T11:36:21.855Z,1.44
2024-04-18T11:46:59.786Z,2.9
2024-04-18T12:02:57.565Z,0.42
2024-04-18T12:18:54.219Z,1.42
2024-04-18T12:29:32.992Z,4.84
2024-04-18T12:34:52.421Z,4.64
2024-04-18T12:45:30.928Z,0.8
2024-04-18T13:01:29.218Z,1.42
2024-04-18T13:12:07.626Z,2.56
2024-04-18T13:17:26.778Z,3.84
2024-04-18T13:28:05.464Z,1.88
2024-04-18T13:44:02.849Z,0.94
2024-04-18T13:54:40.172Z,3.4
2024-04-18T14:00:00.009Z,5.32
2024-04-18T14:10:38.591Z,5.44
2024-04-18T14:26:36.686Z,5.92
2024-04-18T14:42:34.134Z,2.6
2024-04-18T14:53:12.469Z,1.64
2024-04-18T15:09:10.643Z,3.04
2024-04-18T15:25:06.937Z,2.09
2024-04-18T15:35:46.210Z,2.5
2024-04-18T15:41:05.476Z,4.71
2024-04-18T15:51:44.734Z,2.66
2024-04-18T16:02:23.344Z,3.54
2024-04-18T16:13:01.398Z,1.38
2024-04-18T16:18:21.171Z,0
2024-04-18T16:28:59.611Z,1.1
2024-04-18T16:34:18.583Z,1.24
2024-04-18T16:44:57.867Z,1.7
2024-04-18T17:00:55.594Z,0
2024-04-18T17:11:34.213Z,0.5
2024-04-18T17:16:53.724Z,0
2024-04-18T17:27:31.606Z,0.88
2024-04-18T17:43:29.891Z,1.08
2024-04-18T17:54:08.602Z,0.76
2024-04-18T17:59:27.284Z,0.52
2024-04-18T18:10:05.200Z,0.58
2024-04-18T18:26:02.746Z,0.74
2024-04-18T18:42:00.200Z,0.18
2024-04-18T18:52:39.056Z,0.4
2024-04-18T19:08:36.359Z,0.5
2024-04-18T19:19:14.393Z,0.8
2024-04-18T19:24:33.542Z,0.42
2024-04-18T19:35:13.667Z,0
2024-04-18T19:40:30.844Z,1.04
2024-04-18T19:51:09.725Z,0
2024-04-18T20:07:07.464Z,1.14
2024-04-18T20:17:48.226Z,0
2024-04-18T20:33:43.864Z,0
2024-04-18T20:49:41.522Z,0.88
2024-04-18T21:05:39.104Z,0
2024-04-18T21:16:17.985Z,0
2024-04-18T21:26:56.112Z,0
2024-04-18T21:32:15.460Z,0
2024-04-18T21:42:54.374Z,1.08
2024-04-18T21:48:14.011Z,2.08
2024-04-18T21:58:52.354Z,1.42
2024-04-18T22:14:50.219Z,1.78
2024-04-18T22:25:29.108Z,0.52
2024-04-18T22:30:48.182Z,1.26
2024-04-18T22:41:27.646Z,1.42
2024-04-18T22:52:06.528Z,0.34
2024-04-18T23:04:00.863Z,1.22
2024-04-18T23:08:03.976Z,0.96
2024-04-18T23:18:42.508Z,1
2024-04-18T23:24:01.034Z,1.28
2024-04-18T23:34:39.585Z,1.42
2024-04-18T23:50:38.224Z,4.5
